Tropical Cyclones
[Index]
Main Index Home Page Stock Weather Photos Extreme Storms Discussion Storm News and Storm Chasing Reports Tropical Cyclones / Hurricanes / Typhoons Weather Data and Links Wild Fires / Bushfires Weather Observation Techniques Weather Picture Catalogue Tornado Pictures and Reports Stock Video Footage and DVDs for sale
Season 1987-1988 Tropical Cyclone GASITAO Track Map
Season 1987-1988 Summaries: [BoM-AU] [JTWC-AU] [JTWC-SIO] [JTWC-SPAC] [JTWC-SH]
<<- Previous TC | JTWC 1987-1988 Season | Next TC ->>

click for intensity scale information  Lat/long Grid: Show Hide

 Date Labels: Show Hide

Joint Typhoon Warning Centre Cyclone Data

Name: GASITAO

12 Mar 1988 00:00 UTC to 24 Mar 1988 00:00 UTC

    date/time    lat    long     hPa   cat  kts
1988-03-12 00    7.6    88.0                  20          
1988-03-12 06    8.0    86.8                  20          
1988-03-12 12    8.7    85.8                  20          
1988-03-12 18    9.5    84.9                  20          
1988-03-13 00   10.0    84.0                  20          
1988-03-13 06   10.5    83.0                  20          
1988-03-13 12   10.8    82.0                  20          
1988-03-13 18   11.1    81.3                  20          
1988-03-14 00   11.4    80.4                  20          
1988-03-14 06   11.7    79.7                  20          
1988-03-14 12   12.0    78.8                  20          
1988-03-14 18   12.3    78.1                  25          
1988-03-15 00   12.7    76.8                  25          
1988-03-15 06   13.1    75.4                  25          
1988-03-15 12   13.6    73.9                  30          
1988-03-15 18   14.2    72.5                  30          
1988-03-16 00   14.6    71.0                  35          
1988-03-16 06   14.6    69.8                  35          
1988-03-16 12   14.3    68.8            1     40          
1988-03-16 18   14.0    67.8            1     45          
1988-03-17 00   14.0    66.8            1     50          
1988-03-17 06   14.1    65.8            2     55          
1988-03-17 12   14.5    65.2            2     65          
1988-03-17 18   14.7    64.6            3     75          
1988-03-18 00   15.1    64.0            3     85          
1988-03-18 06   15.5    63.5            4    100          
1988-03-18 12   15.8    63.2            4    115          
1988-03-18 18   16.1    63.0            5    125          
1988-03-19 00   16.3    63.0            5    130          
1988-03-19 06   16.4    63.3            5    130          
1988-03-19 12   16.5    64.2            5    125          
1988-03-19 18   16.5    65.3            4    120          
1988-03-20 00   16.7    66.6            4    115          
1988-03-20 06   17.0    67.7            4    110          
1988-03-20 12   17.9    68.9            4    105          
1988-03-20 18   19.0    69.9            4    100          
1988-03-21 00   20.0    70.5            3     95          
1988-03-21 06   21.0    70.8            3     90          
1988-03-21 12   21.8    70.9            3     80          
1988-03-21 18   22.4    70.8            3     75          
1988-03-22 00   22.6    70.8            2     70          
1988-03-22 06   23.3    71.0            2     60          
1988-03-22 12   24.2    71.4            1     50          
1988-03-22 18   25.6    72.2            1     45          
1988-03-23 00   27.0    72.9            1     40          
1988-03-23 06   28.4    73.6                  35          
1988-03-23 12   29.7    74.3                  30          
1988-03-23 18   30.9    75.4                  25          
1988-03-24 00   32.0    78.1                  25          
Winds are 1-min average.

Tropical cyclone tracks developed by Michael Bath using data from the Joint Typhoon Warning Centre Best Tracks and Google Maps.


[Australian Severe Weather index] [Copyright Notice] [Email Contacts] [Search This Site] [Privacy Policy]
Document: tropical_cyclone_gasitao.htm Updated: 18 September 2016